Terminal Aerodrome Forecast
Issued by NWS Hastings, NE

Home | Current Version | Previous Version | Text Only | Print | Product List | Glossary On
Versions: 1 2 3 4 5 6 7 8 9 10 11 12 13
000
FTUS43 KGID 251120
TAFGRI
TAF
KGRI 251120Z 2512/2612 08005KT P6SM SCT120
     FM251700 11011KT P6SM FEW150
     FM260600 14006KT P6SM SCT150=

USA.gov is the U.S. government's official web portal to all federal, state and local government web resources and services.